Terminal Aerodrome Forecast
Issued by NWS San Angelo, TX

Home | Current Version | Previous Version | Text Only | Print | Product List | Glossary On
Versions: 1 2 3 4 5 6 7 8 9 10 11 12
000
FTUS44 KSJT 200520
TAFSJT
TAF
KSJT 200520Z 2006/2106 18012KT P6SM SKC
     FM201400 19012G20KT P6SM SCT080
     FM210100 16012KT P6SM SCT250=

USA.gov is the U.S. government's official web portal to all federal, state and local government web resources and services.